VTUOVTUQ

Guest
Details From VTUO - Burirum
To VTUQ - Nakhon Ratchasima
Flight Number -
Tags generated
Created
Modified
Stats Distance 58 nm / 108 km
Max Altitude 200 ft / 61 m
Waypoints 3
Social Downloads 2
Likes 0
Share VATSIM

Download

Looking for another format? Having issues loading an existing format? Contact us
Advertisement - Login to hide

Notes

Basic altitude profile: - Ascent Rate: 500ft/min - Ascent Speed: 90kts - Cruise Altitude: 8000ft - Cruise Speed: 90kts - Descent Rate: 500ft/min - Descent Speed: 90kts Options: - Use NATs: yes - Use PACOTS: yes - Use low airways: yes - Use high airways: yes

Route

VTUO BRM VTUQ

ID Type Via Altitude Latitude Longitude Leg Dist Tot Dist Heading (true) Name
O VTUO APT - 0 ft / 0 m 15.22954˚ 103.25323˚ - 0 nm - Burirum
BRM VOR - 200 ft / 61 m 15.23956˚ 103.25878˚ 0 nm 0 nm 28° / 28° BURI RAM VOR-DME
O VTUQ APT - 0 ft / 0 m 14.94950˚ 102.31274˚ 57 nm 58 nm 253° / 252° Nakhon Ratchasima

Altitude Profile

Advertisement - Login to hide

VTUO

Details ICAO VTUO (BFV)
Name Burirum
Region Thailand
Timezone Asia/Bangkok (UTC+7.0)
Stats Elevation 590 ft / 180 m (AMSL)
Location 15.229537° 103.253231°
Runways 1
Magnetic Variation 0.739° W

METAR

VTUO 131300Z 00000KT 7000 FEW025 26/24 Q1011 A2986 INFO N RWY 04

Decode

TAF

TAF VTUO 131100Z 1312/1412 02005KT 9000 SCT025 BECMG 1321/1323 VRB02KT 4000 BR FEW025 BECMG 1402/1404 02005KT 9000 SCT025

Decode

Departure Runways

ID Width Length Bearing (true) Bearing (mag) Surface Threshold Offset Overrun Length
04 148 ft / 45 m 6,930 ft / 2,112 m 34.94° 35.68° Asphalt 0 ft / 0 m 1,726 ft / 526 m
22 148 ft / 45 m 6,930 ft / 2,112 m 214.94° 215.68° Asphalt 0 ft / 0 m 1,704 ft / 519 m

VTUQ

Details ICAO VTUQ (NAK)
Name Nakhon Ratchasima
Region Thailand
Timezone Asia/Bangkok (UTC+7.0)
Stats Elevation 765 ft / 233 m (AMSL)
Location 14.949496° 102.312737°
Runways 1
Magnetic Variation 0.681° W

METAR

VTUQ 131300Z AUTO 00000KT ////NDV ////// 24/24 Q1011 A2986

Decode

TAF

TAF VTUQ 131100Z 1312/1412 04005KT 9000 SCT025 BECMG 1321/1323 VRB02KT 5000 BR FEW025 BECMG 1402/1404 02005KT 9999 SCT025

Decode

Destination Runways

ID Width Length Bearing (true) Bearing (mag) Surface Threshold Offset Overrun Length
06 148 ft / 45 m 6,896 ft / 2,102 m 61.18° 61.86° Asphalt 0 ft / 0 m 197 ft / 60 m
24 148 ft / 45 m 6,896 ft / 2,102 m 241.19° 241.87° Asphalt 0 ft / 0 m 197 ft / 60 m

Approach Navaids

Runway Type Ident Frequency Range Bearing (true) Bearing (mag) Slope Elevation
06 Localiser INKR 109.70 MHz 18 nm / 33 km 61.19° 61.87° - 732 ft / 223 m (AMSL)
06 Glidescope INKR 109.70 MHz 10 nm / 19 km 61.19° 61.87° 3.00° 765 ft / 233 m (AMSL)
06 DME INKR 109.70 MHz 18 nm / 33 km - - - 732 ft / 223 m (AMSL)

Popular Alternatives